sensor_id;sensor_type;location;lat;lon;timestamp;temperature;humidity
37380;DHT22;23252;-33.992;18.480;2023-05-07T02:16:57;16.20;99.90
37380;DHT22;23252;-33.992;18.480;2023-05-07T02:19:24;16.40;99.90
37380;DHT22;23252;-33.992;18.480;2023-05-07T02:21:51;16.40;99.90
37380;DHT22;23252;-33.992;18.480;2023-05-07T02:24:18;16.40;99.90
37380;DHT22;23252;-33.992;18.480;2023-05-07T02:26:45;16.40;99.90
37380;DHT22;23252;-33.992;18.480;2023-05-07T02:29:12;16.40;99.90
37380;DHT22;23252;-33.992;18.480;2023-05-07T02:31:38;16.50;99.90
37380;DHT22;23252;-33.992;18.480;2023-05-07T02:34:04;16.50;99.90
37380;DHT22;23252;-33.992;18.480;2023-05-07T02:36:31;16.50;99.90
37380;DHT22;23252;-33.992;18.480;2023-05-07T02:38:58;16.50;99.90
37380;DHT22;23252;-33.992;18.480;2023-05-07T02:41:24;16.50;99.90
37380;DHT22;23252;-33.992;18.480;2023-05-07T02:43:51;16.50;99.90
37380;DHT22;23252;-33.992;18.480;2023-05-07T02:46:17;16.60;99.90
37380;DHT22;23252;-33.992;18.480;2023-05-07T02:48:44;16.60;99.90
37380;DHT22;23252;-33.992;18.480;2023-05-07T02:51:10;16.50;99.90
37380;DHT22;23252;-33.992;18.480;2023-05-07T02:53:37;16.60;99.90
37380;DHT22;23252;-33.992;18.480;2023-05-07T02:56:03;16.60;99.90
37380;DHT22;23252;-33.992;18.480;2023-05-07T02:58:31;16.60;99.90
37380;DHT22;23252;-33.992;18.480;2023-05-07T03:00:58;16.60;99.90
37380;DHT22;23252;-33.992;18.480;2023-05-07T03:03:24;16.60;99.90
37380;DHT22;23252;-33.992;18.480;2023-05-07T03:05:51;16.60;99.90
37380;DHT22;23252;-33.992;18.480;2023-05-07T03:08:17;16.60;99.90
37380;DHT22;23252;-33.992;18.480;2023-05-07T03:10:44;16.60;99.90
37380;DHT22;23252;-33.992;18.480;2023-05-07T03:13:11;16.60;99.90
37380;DHT22;23252;-33.992;18.480;2023-05-07T03:15:37;16.60;99.90
37380;DHT22;23252;-33.992;18.480;2023-05-07T03:18:04;16.70;99.90
37380;DHT22;23252;-33.992;18.480;2023-05-07T03:20:30;16.70;99.90
37380;DHT22;23252;-33.992;18.480;2023-05-07T03:22:57;16.70;99.90
37380;DHT22;23252;-33.992;18.480;2023-05-07T03:25:23;16.70;99.90
37380;DHT22;23252;-33.992;18.480;2023-05-07T03:27:50;16.60;99.90
37380;DHT22;23252;-33.992;18.480;2023-05-07T03:30:16;16.60;99.90
37380;DHT22;23252;-33.992;18.480;2023-05-07T03:32:43;16.60;99.90
37380;DHT22;23252;-33.992;18.480;2023-05-07T03:35:09;16.60;99.90
37380;DHT22;23252;-33.992;18.480;2023-05-07T03:37:36;16.60;99.90
37380;DHT22;23252;-33.992;18.480;2023-05-07T03:40:02;16.60;99.90
37380;DHT22;23252;-33.992;18.480;2023-05-07T03:42:30;16.60;99.90
37380;DHT22;23252;-33.992;18.480;2023-05-07T03:44:56;16.60;99.90
37380;DHT22;23252;-33.992;18.480;2023-05-07T03:47:23;16.60;99.90
37380;DHT22;23252;-33.992;18.480;2023-05-07T03:49:49;16.60;99.90
37380;DHT22;23252;-33.992;18.480;2023-05-07T03:52:16;16.60;99.90
37380;DHT22;23252;-33.992;18.480;2023-05-07T03:54:48;16.60;99.90
37380;DHT22;23252;-33.992;18.480;2023-05-07T03:57:15;16.60;99.90
37380;DHT22;23252;-33.992;18.480;2023-05-07T03:59:41;16.50;99.90
37380;DHT22;23252;-33.992;18.480;2023-05-07T04:02:08;16.50;99.90
37380;DHT22;23252;-33.992;18.480;2023-05-07T04:04:34;16.50;99.90
37380;DHT22;23252;-33.992;18.480;2023-05-07T04:07:01;16.50;99.90
37380;DHT22;23252;-33.992;18.480;2023-05-07T04:09:28;16.50;99.90
37380;DHT22;23252;-33.992;18.480;2023-05-07T04:11:55;16.50;99.90
37380;DHT22;23252;-33.992;18.480;2023-05-07T04:14:21;16.50;99.90
37380;DHT22;23252;-33.992;18.480;2023-05-07T04:16:47;16.40;99.90
37380;DHT22;23252;-33.992;18.480;2023-05-07T04:19:14;16.50;99.90
37380;DHT22;23252;-33.992;18.480;2023-05-07T04:21:40;16.40;99.90
37380;DHT22;23252;-33.992;18.480;2023-05-07T04:24:07;16.40;99.90
37380;DHT22;23252;-33.992;18.480;2023-05-07T04:26:33;16.40;99.90
37380;DHT22;23252;-33.992;18.480;2023-05-07T04:29:00;16.50;99.90
37380;DHT22;23252;-33.992;18.480;2023-05-07T04:31:27;16.40;99.90
37380;DHT22;23252;-33.992;18.480;2023-05-07T04:33:53;16.50;99.90
37380;DHT22;23252;-33.992;18.480;2023-05-07T04:36:20;16.40;99.90
37380;DHT22;23252;-33.992;18.480;2023-05-07T04:38:47;16.40;99.90
37380;DHT22;23252;-33.992;18.480;2023-05-07T04:41:13;16.50;99.90
37380;DHT22;23252;-33.992;18.480;2023-05-07T04:43:41;16.40;99.90
37380;DHT22;23252;-33.992;18.480;2023-05-07T04:46:07;16.40;99.90
37380;DHT22;23252;-33.992;18.480;2023-05-07T04:48:34;16.50;99.90
37380;DHT22;23252;-33.992;18.480;2023-05-07T04:51:00;16.40;99.90
37380;DHT22;23252;-33.992;18.480;2023-05-07T04:53:27;16.50;99.90
37380;DHT22;23252;-33.992;18.480;2023-05-07T04:55:57;16.50;99.90
37380;DHT22;23252;-33.992;18.480;2023-05-07T04:58:24;16.50;99.90
37380;DHT22;23252;-33.992;18.480;2023-05-07T05:00:50;16.40;99.90
37380;DHT22;23252;-33.992;18.480;2023-05-07T05:03:17;16.50;99.90
37380;DHT22;23252;-33.992;18.480;2023-05-07T05:05:44;16.50;99.90
37380;DHT22;23252;-33.992;18.480;2023-05-07T05:08:10;16.50;99.90
37380;DHT22;23252;-33.992;18.480;2023-05-07T05:10:37;16.50;99.90
37380;DHT22;23252;-33.992;18.480;2023-05-07T05:13:04;16.50;99.90
37380;DHT22;23252;-33.992;18.480;2023-05-07T05:15:31;16.50;99.90
37380;DHT22;23252;-33.992;18.480;2023-05-07T05:17:57;16.50;99.90
37380;DHT22;23252;-33.992;18.480;2023-05-07T05:20:24;16.50;99.90
37380;DHT22;23252;-33.992;18.480;2023-05-07T05:22:50;16.50;99.90
37380;DHT22;23252;-33.992;18.480;2023-05-07T05:25:17;16.50;99.90
37380;DHT22;23252;-33.992;18.480;2023-05-07T05:27:47;16.40;99.90
37380;DHT22;23252;-33.992;18.480;2023-05-07T05:30:13;16.40;99.90
37380;DHT22;23252;-33.992;18.480;2023-05-07T05:32:40;16.40;99.90
37380;DHT22;23252;-33.992;18.480;2023-05-07T05:35:07;16.40;99.90
37380;DHT22;23252;-33.992;18.480;2023-05-07T05:37:34;16.40;99.90
37380;DHT22;23252;-33.992;18.480;2023-05-07T05:40:00;16.40;99.90
37380;DHT22;23252;-33.992;18.480;2023-05-07T05:42:27;16.40;99.90
37380;DHT22;23252;-33.992;18.480;2023-05-07T05:44:53;16.30;99.90
37380;DHT22;23252;-33.992;18.480;2023-05-07T05:47:20;16.40;99.90
37380;DHT22;23252;-33.992;18.480;2023-05-07T05:49:46;16.40;99.90
37380;DHT22;23252;-33.992;18.480;2023-05-07T05:52:13;16.40;99.90
37380;DHT22;23252;-33.992;18.480;2023-05-07T05:54:40;16.40;99.90
37380;DHT22;23252;-33.992;18.480;2023-05-07T05:57:06;16.40;99.90
37380;DHT22;23252;-33.992;18.480;2023-05-07T05:59:36;16.40;99.90
37380;DHT22;23252;-33.992;18.480;2023-05-07T06:02:02;16.50;99.90
37380;DHT22;23252;-33.992;18.480;2023-05-07T06:04:29;16.40;99.90
37380;DHT22;23252;-33.992;18.480;2023-05-07T06:06:55;16.50;99.90
37380;DHT22;23252;-33.992;18.480;2023-05-07T06:09:22;16.50;99.90
37380;DHT22;23252;-33.992;18.480;2023-05-07T06:11:49;16.40;99.90
37380;DHT22;23252;-33.992;18.480;2023-05-07T06:14:15;16.50;99.90
37380;DHT22;23252;-33.992;18.480;2023-05-07T06:16:42;16.50;99.90
37380;DHT22;23252;-33.992;18.480;2023-05-07T06:19:08;16.50;99.90
37380;DHT22;23252;-33.992;18.480;2023-05-07T06:21:35;16.40;99.90
37380;DHT22;23252;-33.992;18.480;2023-05-07T06:24:01;16.50;99.90
37380;DHT22;23252;-33.992;18.480;2023-05-07T06:26:28;16.50;99.90
37380;DHT22;23252;-33.992;18.480;2023-05-07T06:28:54;16.50;99.90
37380;DHT22;23252;-33.992;18.480;2023-05-07T06:31:21;16.60;99.90
37380;DHT22;23252;-33.992;18.480;2023-05-07T06:33:48;16.60;99.90
37380;DHT22;23252;-33.992;18.480;2023-05-07T06:36:15;16.60;99.90
37380;DHT22;23252;-33.992;18.480;2023-05-07T06:38:42;16.60;99.90
37380;DHT22;23252;-33.992;18.480;2023-05-07T06:41:08;16.60;99.90
37380;DHT22;23252;-33.992;18.480;2023-05-07T06:43:35;16.60;99.90
37380;DHT22;23252;-33.992;18.480;2023-05-07T06:46:02;16.60;99.90
37380;DHT22;23252;-33.992;18.480;2023-05-07T06:48:28;16.70;99.90
37380;DHT22;23252;-33.992;18.480;2023-05-07T06:50:55;16.70;99.90
37380;DHT22;23252;-33.992;18.480;2023-05-07T06:53:24;16.70;99.90
37380;DHT22;23252;-33.992;18.480;2023-05-07T06:55:50;16.70;99.90
37380;DHT22;23252;-33.992;18.480;2023-05-07T06:58:18;16.80;99.90
37380;DHT22;23252;-33.992;18.480;2023-05-07T07:00:44;17.00;99.90
37380;DHT22;23252;-33.992;18.480;2023-05-07T07:03:11;17.10;99.90
37380;DHT22;23252;-33.992;18.480;2023-05-07T07:05:38;17.20;99.90
37380;DHT22;23252;-33.992;18.480;2023-05-07T07:08:04;17.30;99.90
37380;DHT22;23252;-33.992;18.480;2023-05-07T07:10:31;17.30;99.90
37380;DHT22;23252;-33.992;18.480;2023-05-07T07:12:58;17.30;99.90
37380;DHT22;23252;-33.992;18.480;2023-05-07T07:15:25;17.30;99.90
37380;DHT22;23252;-33.992;18.480;2023-05-07T07:17:52;17.30;99.90
37380;DHT22;23252;-33.992;18.480;2023-05-07T07:20:19;17.40;99.90
37380;DHT22;23252;-33.992;18.480;2023-05-07T07:22:46;17.40;99.90
37380;DHT22;23252;-33.992;18.480;2023-05-07T07:25:12;17.40;99.90
37380;DHT22;23252;-33.992;18.480;2023-05-07T07:27:39;17.50;99.90
37380;DHT22;23252;-33.992;18.480;2023-05-07T07:30:06;17.50;99.90
37380;DHT22;23252;-33.992;18.480;2023-05-07T07:32:37;17.50;99.90
37380;DHT22;23252;-33.992;18.480;2023-05-07T07:35:03;17.50;99.90
37380;DHT22;23252;-33.992;18.480;2023-05-07T07:37:33;17.60;99.90
37380;DHT22;23252;-33.992;18.480;2023-05-07T07:40:00;17.60;99.90
37380;DHT22;23252;-33.992;18.480;2023-05-07T07:42:30;17.60;99.90
37380;DHT22;23252;-33.992;18.480;2023-05-07T07:44:56;17.60;99.90
37380;DHT22;23252;-33.992;18.480;2023-05-07T07:47:23;17.60;99.90
37380;DHT22;23252;-33.992;18.480;2023-05-07T07:49:50;17.60;99.90
37380;DHT22;23252;-33.992;18.480;2023-05-07T07:52:17;17.70;99.90
37380;DHT22;23252;-33.992;18.480;2023-05-07T07:54:44;17.70;99.90
37380;DHT22;23252;-33.992;18.480;2023-05-07T07:57:14;17.70;99.90
37380;DHT22;23252;-33.992;18.480;2023-05-07T07:59:40;17.80;99.90
37380;DHT22;23252;-33.992;18.480;2023-05-07T08:02:09;17.80;99.90
37380;DHT22;23252;-33.992;18.480;2023-05-07T10:13:43;19.50;99.90
37380;DHT22;23252;-33.992;18.480;2023-05-07T10:16:10;19.80;99.90
37380;DHT22;23252;-33.992;18.480;2023-05-07T10:18:37;19.80;99.90
37380;DHT22;23252;-33.992;18.480;2023-05-07T10:21:19;19.80;99.90
37380;DHT22;23252;-33.992;18.480;2023-05-07T10:23:49;19.90;99.90
37380;DHT22;23252;-33.992;18.480;2023-05-07T10:26:18;20.00;99.90
37380;DHT22;23252;-33.992;18.480;2023-05-07T10:28:48;20.00;99.90
37380;DHT22;23252;-33.992;18.480;2023-05-07T10:31:23;20.10;99.90
37380;DHT22;23252;-33.992;18.480;2023-05-07T10:33:52;20.20;99.90
37380;DHT22;23252;-33.992;18.480;2023-05-07T10:36:22;20.20;99.90
37380;DHT22;23252;-33.992;18.480;2023-05-07T10:38:48;20.20;99.90
37380;DHT22;23252;-33.992;18.480;2023-05-07T10:41:17;20.10;99.90
37380;DHT22;23252;-33.992;18.480;2023-05-07T10:43:44;20.20;99.90
37380;DHT22;23252;-33.992;18.480;2023-05-07T10:51:32;20.50;99.90
37380;DHT22;23252;-33.992;18.480;2023-05-07T10:56:42;20.70;99.90
37380;DHT22;23252;-33.992;18.480;2023-05-07T11:01:57;20.80;99.90
37380;DHT22;23252;-33.992;18.480;2023-05-07T11:04:25;20.90;99.90
37380;DHT22;23252;-33.992;18.480;2023-05-07T11:10:03;21.00;99.90
37380;DHT22;23252;-33.992;18.480;2023-05-07T11:15:07;21.10;99.90
37380;DHT22;23252;-33.992;18.480;2023-05-07T11:17:51;21.00;99.90
37380;DHT22;23252;-33.992;18.480;2023-05-07T11:20:18;21.00;99.90
37380;DHT22;23252;-33.992;18.480;2023-05-07T11:22:45;21.00;99.90
37380;DHT22;23252;-33.992;18.480;2023-05-07T11:25:17;21.10;99.90
37380;DHT22;23252;-33.992;18.480;2023-05-07T11:27:47;21.20;99.90
37380;DHT22;23252;-33.992;18.480;2023-05-07T11:30:17;21.30;99.90
37380;DHT22;23252;-33.992;18.480;2023-05-07T11:32:47;21.40;99.90
37380;DHT22;23252;-33.992;18.480;2023-05-07T11:35:15;21.40;99.90
37380;DHT22;23252;-33.992;18.480;2023-05-07T11:37:42;21.50;99.90
37380;DHT22;23252;-33.992;18.480;2023-05-07T11:40:11;21.80;99.90
37380;DHT22;23252;-33.992;18.480;2023-05-07T11:42:40;22.10;99.90
37380;DHT22;23252;-33.992;18.480;2023-05-07T11:45:09;22.40;99.90
37380;DHT22;23252;-33.992;18.480;2023-05-07T11:47:36;22.70;99.90
37380;DHT22;23252;-33.992;18.480;2023-05-07T11:50:05;22.90;99.90
37380;DHT22;23252;-33.992;18.480;2023-05-07T11:52:32;23.10;99.90
37380;DHT22;23252;-33.992;18.480;2023-05-07T11:54:59;23.20;99.90
37380;DHT22;23252;-33.992;18.480;2023-05-07T11:57:27;23.40;99.90
37380;DHT22;23252;-33.992;18.480;2023-05-07T11:59:55;23.60;99.90
37380;DHT22;23252;-33.992;18.480;2023-05-07T12:02:22;23.60;99.90
37380;DHT22;23252;-33.992;18.480;2023-05-07T12:04:51;23.50;99.90
37380;DHT22;23252;-33.992;18.480;2023-05-07T12:07:18;23.50;99.90
37380;DHT22;23252;-33.992;18.480;2023-05-07T12:09:46;23.70;99.90
37380;DHT22;23252;-33.992;18.480;2023-05-07T12:12:13;23.70;99.90
37380;DHT22;23252;-33.992;18.480;2023-05-07T12:14:44;23.80;99.90
37380;DHT22;23252;-33.992;18.480;2023-05-07T12:17:13;23.80;99.90
37380;DHT22;23252;-33.992;18.480;2023-05-07T12:19:41;23.90;99.90
37380;DHT22;23252;-33.992;18.480;2023-05-07T12:22:08;24.00;99.90
37380;DHT22;23252;-33.992;18.480;2023-05-07T12:24:49;24.00;99.90
37380;DHT22;23252;-33.992;18.480;2023-05-07T12:27:16;24.00;99.90
37380;DHT22;23252;-33.992;18.480;2023-05-07T12:29:47;24.10;99.90
37380;DHT22;23252;-33.992;18.480;2023-05-07T12:32:18;24.10;99.90
37380;DHT22;23252;-33.992;18.480;2023-05-07T12:34:45;24.10;99.90
37380;DHT22;23252;-33.992;18.480;2023-05-07T12:37:12;24.20;99.90
37380;DHT22;23252;-33.992;18.480;2023-05-07T12:39:47;24.30;99.90
37380;DHT22;23252;-33.992;18.480;2023-05-07T12:42:20;24.30;99.90
37380;DHT22;23252;-33.992;18.480;2023-05-07T12:44:51;24.40;99.90
37380;DHT22;23252;-33.992;18.480;2023-05-07T12:47:18;24.50;99.90
37380;DHT22;23252;-33.992;18.480;2023-05-07T12:49:45;24.60;99.90
37380;DHT22;23252;-33.992;18.480;2023-05-07T12:52:11;24.70;99.90
37380;DHT22;23252;-33.992;18.480;2023-05-07T12:54:38;24.60;99.90
37380;DHT22;23252;-33.992;18.480;2023-05-07T12:57:07;24.50;99.90
37380;DHT22;23252;-33.992;18.480;2023-05-07T13:02:00;24.20;99.90
37380;DHT22;23252;-33.992;18.480;2023-05-07T13:04:26;24.10;99.90
37380;DHT22;23252;-33.992;18.480;2023-05-07T13:06:53;23.80;99.90
37380;DHT22;23252;-33.992;18.480;2023-05-07T13:09:19;23.30;99.90
37380;DHT22;23252;-33.992;18.480;2023-05-07T13:11:46;22.90;99.90
37380;DHT22;23252;-33.992;18.480;2023-05-07T13:14:13;22.30;99.90
37380;DHT22;23252;-33.992;18.480;2023-05-07T13:16:39;21.90;99.90
37380;DHT22;23252;-33.992;18.480;2023-05-07T13:19:06;21.70;99.90
37380;DHT22;23252;-33.992;18.480;2023-05-07T13:21:32;21.60;99.90
37380;DHT22;23252;-33.992;18.480;2023-05-07T13:23:59;21.50;99.90
37380;DHT22;23252;-33.992;18.480;2023-05-07T13:26:26;21.40;99.90
37380;DHT22;23252;-33.992;18.480;2023-05-07T13:28:53;21.30;99.90
37380;DHT22;23252;-33.992;18.480;2023-05-07T13:31:20;21.30;99.90
37380;DHT22;23252;-33.992;18.480;2023-05-07T13:33:47;21.20;99.90
37380;DHT22;23252;-33.992;18.480;2023-05-07T13:36:14;21.10;99.90
37380;DHT22;23252;-33.992;18.480;2023-05-07T13:38:40;21.00;99.90
37380;DHT22;23252;-33.992;18.480;2023-05-07T13:41:07;20.90;99.90
37380;DHT22;23252;-33.992;18.480;2023-05-07T13:43:33;20.90;99.90
37380;DHT22;23252;-33.992;18.480;2023-05-07T13:46:00;20.80;99.90
37380;DHT22;23252;-33.992;18.480;2023-05-07T13:48:27;20.60;99.90
37380;DHT22;23252;-33.992;18.480;2023-05-07T13:50:54;20.50;99.90
37380;DHT22;23252;-33.992;18.480;2023-05-07T13:53:21;20.40;99.90
37380;DHT22;23252;-33.992;18.480;2023-05-07T13:55:47;20.40;99.90
37380;DHT22;23252;-33.992;18.480;2023-05-07T13:58:14;20.30;99.90
37380;DHT22;23252;-33.992;18.480;2023-05-07T14:00:40;20.20;99.90
37380;DHT22;23252;-33.992;18.480;2023-05-07T14:03:07;20.20;99.90
37380;DHT22;23252;-33.992;18.480;2023-05-07T14:05:33;20.10;99.90
37380;DHT22;23252;-33.992;18.480;2023-05-07T14:08:00;20.00;99.90
37380;DHT22;23252;-33.992;18.480;2023-05-07T14:10:27;20.00;99.90
37380;DHT22;23252;-33.992;18.480;2023-05-07T14:12:53;20.00;99.90
37380;DHT22;23252;-33.992;18.480;2023-05-07T14:15:20;20.00;99.90
37380;DHT22;23252;-33.992;18.480;2023-05-07T14:17:47;19.90;99.90
37380;DHT22;23252;-33.992;18.480;2023-05-07T18:19:47;16.90;99.90
37380;DHT22;23252;-33.992;18.480;2023-05-07T18:22:16;17.00;99.90
37380;DHT22;23252;-33.992;18.480;2023-05-07T18:24:43;16.90;99.90
37380;DHT22;23252;-33.992;18.480;2023-05-07T18:27:12;16.90;99.90
37380;DHT22;23252;-33.992;18.480;2023-05-07T18:29:39;16.90;99.90
37380;DHT22;23252;-33.992;18.480;2023-05-07T18:32:06;16.90;99.90
37380;DHT22;23252;-33.992;18.480;2023-05-07T18:34:32;17.00;99.90
37380;DHT22;23252;-33.992;18.480;2023-05-07T18:36:59;17.00;99.90
37380;DHT22;23252;-33.992;18.480;2023-05-07T18:39:26;17.00;99.90
37380;DHT22;23252;-33.992;18.480;2023-05-07T18:41:52;17.00;99.90
37380;DHT22;23252;-33.992;18.480;2023-05-07T18:44:19;17.00;99.90
37380;DHT22;23252;-33.992;18.480;2023-05-07T18:46:45;17.00;99.90
37380;DHT22;23252;-33.992;18.480;2023-05-07T18:49:21;17.00;99.90
37380;DHT22;23252;-33.992;18.480;2023-05-07T18:51:48;17.00;99.90
37380;DHT22;23252;-33.992;18.480;2023-05-07T18:54:14;17.10;99.90
37380;DHT22;23252;-33.992;18.480;2023-05-07T18:56:41;17.20;99.90
37380;DHT22;23252;-33.992;18.480;2023-05-07T18:59:11;17.10;99.90
37380;DHT22;23252;-33.992;18.480;2023-05-07T19:01:37;17.10;99.90
37380;DHT22;23252;-33.992;18.480;2023-05-07T19:04:04;17.10;99.90
37380;DHT22;23252;-33.992;18.480;2023-05-07T19:06:33;17.00;99.90
37380;DHT22;23252;-33.992;18.480;2023-05-07T19:08:59;17.00;99.90
37380;DHT22;23252;-33.992;18.480;2023-05-07T19:11:27;17.00;99.90
37380;DHT22;23252;-33.992;18.480;2023-05-07T19:13:53;16.90;99.90
37380;DHT22;23252;-33.992;18.480;2023-05-07T19:16:20;16.90;99.90
37380;DHT22;23252;-33.992;18.480;2023-05-07T19:18:47;16.80;99.90
37380;DHT22;23252;-33.992;18.480;2023-05-07T19:21:16;16.80;99.90
37380;DHT22;23252;-33.992;18.480;2023-05-07T19:23:43;16.70;99.90
37380;DHT22;23252;-33.992;18.480;2023-05-07T19:26:11;16.70;99.90
37380;DHT22;23252;-33.992;18.480;2023-05-07T19:28:38;16.70;99.90
37380;DHT22;23252;-33.992;18.480;2023-05-07T19:31:04;16.60;99.90
37380;DHT22;23252;-33.992;18.480;2023-05-07T19:33:31;16.60;99.90
37380;DHT22;23252;-33.992;18.480;2023-05-07T19:35:58;16.60;99.90
37380;DHT22;23252;-33.992;18.480;2023-05-07T19:38:25;16.60;99.90
37380;DHT22;23252;-33.992;18.480;2023-05-07T19:40:55;16.50;99.90
37380;DHT22;23252;-33.992;18.480;2023-05-07T19:43:22;16.60;99.90
37380;DHT22;23252;-33.992;18.480;2023-05-07T19:45:51;16.50;99.90
37380;DHT22;23252;-33.992;18.480;2023-05-07T19:48:18;16.50;99.90
37380;DHT22;23252;-33.992;18.480;2023-05-07T19:50:47;16.50;99.90
37380;DHT22;23252;-33.992;18.480;2023-05-07T19:53:17;16.50;99.90
37380;DHT22;23252;-33.992;18.480;2023-05-07T19:55:46;16.40;99.90
37380;DHT22;23252;-33.992;18.480;2023-05-07T19:58:13;16.40;99.90
37380;DHT22;23252;-33.992;18.480;2023-05-07T20:00:41;16.40;99.90
37380;DHT22;23252;-33.992;18.480;2023-05-07T20:03:08;16.40;99.90
37380;DHT22;23252;-33.992;18.480;2023-05-07T20:05:39;16.40;99.90
37380;DHT22;23252;-33.992;18.480;2023-05-07T20:08:08;16.40;99.90
37380;DHT22;23252;-33.992;18.480;2023-05-07T20:10:35;16.40;99.90
37380;DHT22;23252;-33.992;18.480;2023-05-07T20:13:02;16.40;99.90
37380;DHT22;23252;-33.992;18.480;2023-05-07T20:15:28;16.30;99.90
37380;DHT22;23252;-33.992;18.480;2023-05-07T20:17:55;16.40;99.90
37380;DHT22;23252;-33.992;18.480;2023-05-07T20:20:22;16.30;99.90
37380;DHT22;23252;-33.992;18.480;2023-05-07T20:22:48;16.30;99.90
37380;DHT22;23252;-33.992;18.480;2023-05-07T20:25:15;16.20;99.90
37380;DHT22;23252;-33.992;18.480;2023-05-07T20:27:44;16.10;99.90
37380;DHT22;23252;-33.992;18.480;2023-05-07T20:30:11;16.10;99.90
37380;DHT22;23252;-33.992;18.480;2023-05-07T20:32:38;16.10;99.90
37380;DHT22;23252;-33.992;18.480;2023-05-07T20:35:05;16.10;99.90
37380;DHT22;23252;-33.992;18.480;2023-05-07T20:37:32;16.10;99.90
37380;DHT22;23252;-33.992;18.480;2023-05-07T20:40:00;16.00;99.90
37380;DHT22;23252;-33.992;18.480;2023-05-07T20:42:26;15.90;99.90
37380;DHT22;23252;-33.992;18.480;2023-05-07T20:44:54;15.90;99.90
37380;DHT22;23252;-33.992;18.480;2023-05-07T20:47:21;15.90;99.90
37380;DHT22;23252;-33.992;18.480;2023-05-07T20:49:51;16.00;99.90
37380;DHT22;23252;-33.992;18.480;2023-05-07T20:52:18;16.00;99.90
37380;DHT22;23252;-33.992;18.480;2023-05-07T20:54:45;16.00;99.90
37380;DHT22;23252;-33.992;18.480;2023-05-07T20:57:15;15.90;99.90
37380;DHT22;23252;-33.992;18.480;2023-05-07T20:59:44;15.90;99.90
37380;DHT22;23252;-33.992;18.480;2023-05-07T21:02:10;15.80;99.90
37380;DHT22;23252;-33.992;18.480;2023-05-07T21:04:37;15.80;99.90
37380;DHT22;23252;-33.992;18.480;2023-05-07T21:07:03;15.90;99.90
37380;DHT22;23252;-33.992;18.480;2023-05-07T21:09:30;15.80;99.90
37380;DHT22;23252;-33.992;18.480;2023-05-07T21:11:56;15.80;99.90
37380;DHT22;23252;-33.992;18.480;2023-05-07T21:14:23;15.80;99.90
37380;DHT22;23252;-33.992;18.480;2023-05-07T21:16:50;15.80;99.90
37380;DHT22;23252;-33.992;18.480;2023-05-07T21:19:16;15.80;99.90
37380;DHT22;23252;-33.992;18.480;2023-05-07T21:21:43;15.80;99.90
37380;DHT22;23252;-33.992;18.480;2023-05-07T21:24:09;15.80;99.90
37380;DHT22;23252;-33.992;18.480;2023-05-07T21:26:36;15.70;99.90
37380;DHT22;23252;-33.992;18.480;2023-05-07T21:29:03;15.70;99.90
37380;DHT22;23252;-33.992;18.480;2023-05-07T21:31:29;15.70;99.90
37380;DHT22;23252;-33.992;18.480;2023-05-07T21:33:56;15.60;99.90
37380;DHT22;23252;-33.992;18.480;2023-05-07T21:36:23;15.70;99.90
37380;DHT22;23252;-33.992;18.480;2023-05-07T21:38:49;15.60;99.90
37380;DHT22;23252;-33.992;18.480;2023-05-07T21:41:16;15.60;99.90
37380;DHT22;23252;-33.992;18.480;2023-05-07T21:43:45;15.60;99.90
37380;DHT22;23252;-33.992;18.480;2023-05-07T21:46:11;15.60;99.90
37380;DHT22;23252;-33.992;18.480;2023-05-07T21:48:38;15.50;99.90
37380;DHT22;23252;-33.992;18.480;2023-05-07T21:51:06;15.50;99.90
37380;DHT22;23252;-33.992;18.480;2023-05-07T21:53:33;15.60;99.90
37380;DHT22;23252;-33.992;18.480;2023-05-07T21:56:00;15.50;99.90
37380;DHT22;23252;-33.992;18.480;2023-05-07T21:58:30;15.50;99.90
37380;DHT22;23252;-33.992;18.480;2023-05-07T22:00:57;15.50;99.90
37380;DHT22;23252;-33.992;18.480;2023-05-07T22:03:23;15.50;99.90
37380;DHT22;23252;-33.992;18.480;2023-05-07T22:05:50;15.40;99.90
37380;DHT22;23252;-33.992;18.480;2023-05-07T22:08:16;15.40;99.90
37380;DHT22;23252;-33.992;18.480;2023-05-07T22:10:43;15.40;99.90
37380;DHT22;23252;-33.992;18.480;2023-05-07T22:13:09;15.40;99.90
37380;DHT22;23252;-33.992;18.480;2023-05-07T22:15:36;15.40;99.90
37380;DHT22;23252;-33.992;18.480;2023-05-07T22:18:02;15.40;99.90
37380;DHT22;23252;-33.992;18.480;2023-05-07T22:20:29;15.40;99.90
37380;DHT22;23252;-33.992;18.480;2023-05-07T22:22:56;15.40;99.90
37380;DHT22;23252;-33.992;18.480;2023-05-07T22:25:23;15.40;99.90
37380;DHT22;23252;-33.992;18.480;2023-05-07T22:27:51;15.30;99.90
37380;DHT22;23252;-33.992;18.480;2023-05-07T22:30:17;15.30;99.90
37380;DHT22;23252;-33.992;18.480;2023-05-07T22:32:44;15.20;99.90
37380;DHT22;23252;-33.992;18.480;2023-05-07T22:35:11;15.20;99.90
37380;DHT22;23252;-33.992;18.480;2023-05-07T22:37:37;15.20;99.90
37380;DHT22;23252;-33.992;18.480;2023-05-07T22:40:04;15.10;99.90
37380;DHT22;23252;-33.992;18.480;2023-05-07T22:42:31;15.10;99.90
37380;DHT22;23252;-33.992;18.480;2023-05-07T22:44:57;15.10;99.90
37380;DHT22;23252;-33.992;18.480;2023-05-07T22:47:24;15.10;99.90
37380;DHT22;23252;-33.992;18.480;2023-05-07T22:49:53;15.20;99.90
37380;DHT22;23252;-33.992;18.480;2023-05-07T22:52:20;15.20;99.90
37380;DHT22;23252;-33.992;18.480;2023-05-07T22:54:46;15.10;99.90
37380;DHT22;23252;-33.992;18.480;2023-05-07T22:57:13;15.10;99.90
37380;DHT22;23252;-33.992;18.480;2023-05-07T22:59:39;15.10;99.90
37380;DHT22;23252;-33.992;18.480;2023-05-07T23:02:06;15.10;99.90
37380;DHT22;23252;-33.992;18.480;2023-05-07T23:04:32;15.00;99.90
37380;DHT22;23252;-33.992;18.480;2023-05-07T23:06:59;15.00;99.90
37380;DHT22;23252;-33.992;18.480;2023-05-07T23:09:25;15.00;99.90
37380;DHT22;23252;-33.992;18.480;2023-05-07T23:11:52;15.00;99.90
37380;DHT22;23252;-33.992;18.480;2023-05-07T23:14:18;14.90;99.90
37380;DHT22;23252;-33.992;18.480;2023-05-07T23:16:45;15.00;99.90
37380;DHT22;23252;-33.992;18.480;2023-05-07T23:19:11;15.00;99.90
37380;DHT22;23252;-33.992;18.480;2023-05-07T23:21:38;15.00;99.90
37380;DHT22;23252;-33.992;18.480;2023-05-07T23:24:04;15.00;99.90
37380;DHT22;23252;-33.992;18.480;2023-05-07T23:26:31;15.00;99.90
37380;DHT22;23252;-33.992;18.480;2023-05-07T23:28:57;15.00;99.90
37380;DHT22;23252;-33.992;18.480;2023-05-07T23:31:24;15.00;99.90
37380;DHT22;23252;-33.992;18.480;2023-05-07T23:33:50;15.00;99.90
37380;DHT22;23252;-33.992;18.480;2023-05-07T23:36:17;14.90;99.90
37380;DHT22;23252;-33.992;18.480;2023-05-07T23:38:43;14.80;99.90
37380;DHT22;23252;-33.992;18.480;2023-05-07T23:41:10;14.80;99.90
37380;DHT22;23252;-33.992;18.480;2023-05-07T23:43:36;14.80;99.90
37380;DHT22;23252;-33.992;18.480;2023-05-07T23:46:03;14.80;99.90